Terminal Aerodrome Forecast
Issued by NWS Charleston, WV

Current Version | Previous Version | Text Only | Print | Product List | Glossary Off
Versions: 1 2 3 4 5 6 7 8 9 10 11 12 13 14 15 16 17 18 19 20 21 22 23 24 25 26

000
FTUS41 KRLX 040553
TAFPKB
TAF
KPKB 040553Z 0406/0506 00000KT 2SM BR BKN001
     FM040900 00000KT 1/2SM FG VCTS VV001CB
      TEMPO 0409/0411 3SM BR SCT001 BKN100
     FM041100 00000KT 1/2SM FG VV001
     FM041300 00000KT 4SM BR SCT035
     FM041400 00000KT P6SM SCT035
     FM041900 00000KT P6SM VCTS BKN040CB
     FM042200 00000KT P6SM BKN040
     FM050300 00000KT 4SM BR SCT040=

USA.gov is the U.S. government's official web portal to all federal, state and local government web resources and services.